createdAt,value
2019-03-19T00:00:31.000Z,101668.88
2019-03-19T00:02:50.882Z,101669.33
2019-03-19T00:05:10.813Z,101672.77
2019-03-19T00:07:30.375Z,101676.48
2019-03-19T00:09:50.209Z,101679.57
2019-03-19T00:12:10.350Z,101674.03
2019-03-19T00:14:30.122Z,101681.17
2019-03-19T00:16:49.786Z,101681.31
2019-03-19T00:19:09.534Z,101678.22
2019-03-19T00:21:29.395Z,101684.92
2019-03-19T00:23:49.120Z,101683.63
2019-03-19T00:26:09.033Z,101690.34
2019-03-19T00:28:28.805Z,101693.50
2019-03-19T00:30:48.516Z,101689.12
2019-03-19T00:33:08.351Z,101693.73
2019-03-19T00:35:28.088Z,101695.87
2019-03-19T00:37:48.081Z,101700.28
2019-03-19T00:40:14.819Z,101698.84
2019-03-19T00:42:34.659Z,101695.30
2019-03-19T00:44:54.443Z,101703.73
2019-03-19T00:47:14.227Z,101704.70
2019-03-19T00:49:34.033Z,101701.59
2019-03-19T00:51:53.922Z,101703.24
2019-03-19T00:54:13.712Z,101710.08
2019-03-19T00:56:33.566Z,101710.27
2019-03-19T00:58:53.532Z,101708.09
2019-03-19T01:01:13.492Z,101710.03
2019-03-19T01:03:33.442Z,101711.67
2019-03-19T01:05:53.354Z,101705.98
2019-03-19T01:08:13.239Z,101709.21
2019-03-19T01:10:33.195Z,101707.38
2019-03-19T01:12:53.155Z,101715.52
2019-03-19T01:15:13.605Z,101715.50
2019-03-19T01:17:33.433Z,101712.21
2019-03-19T01:19:53.095Z,101699.88
2019-03-19T01:22:12.796Z,101706.37
2019-03-19T01:24:32.506Z,101705.56
2019-03-19T01:26:52.239Z,101702.62
2019-03-19T01:29:11.963Z,101705.73
2019-03-19T01:31:31.834Z,101709.45
2019-03-19T01:33:51.723Z,101707.00
2019-03-19T01:36:11.851Z,101714.34
2019-03-19T01:38:31.571Z,101722.66
2019-03-19T01:40:51.290Z,101727.88
2019-03-19T01:43:11.022Z,101735.53
2019-03-19T01:45:30.700Z,101737.14
2019-03-19T01:47:50.575Z,101736.83
2019-03-19T01:50:14.455Z,101740.59
2019-03-19T01:52:34.518Z,101741.42
2019-03-19T01:54:54.579Z,101739.33
2019-03-19T01:57:14.308Z,101742.13
2019-03-19T01:59:34.147Z,101743.11
2019-03-19T02:01:54.097Z,101743.45
2019-03-19T02:04:14.052Z,101744.78
2019-03-19T02:06:34.127Z,101746.88
2019-03-19T02:08:54.114Z,101748.51
2019-03-19T02:11:14.031Z,101757.12
2019-03-19T02:13:33.898Z,101752.91
2019-03-19T02:15:53.756Z,101750.01
2019-03-19T02:18:13.623Z,101757.15
2019-03-19T02:20:33.323Z,101757.47
2019-03-19T02:22:53.106Z,101764.46
2019-03-19T02:25:12.909Z,101774.21
2019-03-19T02:27:32.751Z,101773.59
2019-03-19T02:29:52.714Z,101782.84
2019-03-19T02:32:12.586Z,101782.03
2019-03-19T02:34:32.441Z,101777.30
2019-03-19T02:36:52.365Z,101781.05
2019-03-19T02:39:12.108Z,101783.82
2019-03-19T02:41:31.826Z,101793.57
2019-03-19T02:43:51.769Z,101789.52
2019-03-19T02:46:11.638Z,101784.78
2019-03-19T02:48:31.363Z,101789.34
2019-03-19T02:50:51.287Z,101800.05
2019-03-19T02:53:11.154Z,101807.06
2019-03-19T02:55:31.105Z,101802.19
2019-03-19T02:57:51.482Z,101805.44
2019-03-19T03:00:14.289Z,101804.45
2019-03-19T03:02:34.304Z,101803.97
2019-03-19T03:04:54.290Z,101801.86
2019-03-19T03:07:14.305Z,101797.95
2019-03-19T03:09:34.293Z,101792.75
2019-03-19T03:11:54.742Z,101794.38
2019-03-19T03:14:14.672Z,101795.70
2019-03-19T03:16:34.557Z,101797.32
2019-03-19T03:18:54.408Z,101806.94
2019-03-19T03:21:14.220Z,101800.92
2019-03-19T03:23:33.926Z,101805.00
2019-03-19T03:25:53.728Z,101810.20
2019-03-19T03:28:13.441Z,101813.14
2019-03-19T03:30:33.234Z,101816.39
2019-03-19T03:32:53.008Z,101816.72
2019-03-19T03:35:12.953Z,101821.78
2019-03-19T03:37:32.927Z,101825.34
2019-03-19T03:39:52.711Z,101830.06
2019-03-19T03:42:12.522Z,101834.80
2019-03-19T03:44:32.326Z,101839.34
2019-03-19T03:46:51.920Z,101841.62
2019-03-19T03:49:11.828Z,101839.01
2019-03-19T03:51:31.767Z,101848.59
2019-03-19T03:53:51.613Z,101847.13
2019-03-19T03:56:11.666Z,101856.41
2019-03-19T03:58:31.664Z,101863.72
2019-03-19T04:00:51.690Z,101866.14
2019-03-19T04:03:12.012Z,101866.31
2019-03-19T04:05:32.051Z,101865.19
2019-03-19T04:07:51.777Z,101871.36
2019-03-19T04:10:18.197Z,101879.98
2019-03-19T04:12:38.417Z,101874.78
2019-03-19T04:14:58.452Z,101876.55
2019-03-19T04:17:18.439Z,101886.30
2019-03-19T04:19:38.402Z,101880.95
2019-03-19T04:21:59.190Z,101884.35
2019-03-19T04:24:19.147Z,101889.39
2019-03-19T04:26:39.407Z,101889.41
2019-03-19T04:28:59.799Z,101894.94
2019-03-19T04:31:20.107Z,101899.98
2019-03-19T04:33:40.117Z,101899.80
2019-03-19T04:35:59.985Z,101900.63
2019-03-19T04:38:19.733Z,101900.95
2019-03-19T04:40:39.372Z,101898.69
2019-03-19T04:42:59.212Z,101901.45
2019-03-19T04:45:18.868Z,101907.78
2019-03-19T04:47:38.639Z,101915.42
2019-03-19T04:49:58.437Z,101917.53
2019-03-19T04:52:18.319Z,101920.75
2019-03-19T04:54:38.096Z,101923.36
2019-03-19T04:56:57.974Z,101929.23
2019-03-19T04:59:17.821Z,101926.94
2019-03-19T05:01:37.576Z,101928.27
2019-03-19T05:03:57.420Z,101937.52
2019-03-19T05:06:17.190Z,101947.28
2019-03-19T05:08:37.143Z,101947.44
2019-03-19T05:10:57.323Z,101946.80
2019-03-19T05:13:17.283Z,101952.50
2019-03-19T05:15:37.276Z,101946.80
2019-03-19T05:17:57.151Z,101958.03
2019-03-19T05:20:17.210Z,101958.67
2019-03-19T05:22:37.437Z,101964.19
2019-03-19T05:24:57.284Z,101967.61
2019-03-19T05:27:16.967Z,101967.78
2019-03-19T05:29:36.774Z,101972.16
2019-03-19T05:31:56.605Z,101972.81
2019-03-19T05:34:16.400Z,101979.80
2019-03-19T05:36:36.195Z,101986.47
2019-03-19T05:38:55.941Z,101984.83
2019-03-19T05:41:16.713Z,101985.17
2019-03-19T05:43:37.034Z,101983.39
2019-03-19T05:45:57.045Z,101983.70
2019-03-19T05:48:17.229Z,101991.36
2019-03-19T05:50:37.113Z,101992.66
2019-03-19T05:52:56.981Z,101998.00
2019-03-19T05:55:17.023Z,101998.95
2019-03-19T05:57:48.407Z,101996.03
2019-03-19T05:59:58.708Z,102009.23
2019-03-19T06:02:18.517Z,102013.48
2019-03-19T06:04:38.333Z,102016.42
2019-03-19T06:06:58.020Z,102026.20
2019-03-19T06:09:17.830Z,102024.39
2019-03-19T06:11:37.678Z,102032.22
2019-03-19T06:13:57.495Z,102028.79
2019-03-19T06:16:17.487Z,102039.69
2019-03-19T06:18:37.355Z,102035.14
2019-03-19T06:20:57.687Z,102037.92
2019-03-19T06:23:17.464Z,102028.97
2019-03-19T06:25:37.201Z,102032.55
2019-03-19T06:28:00.746Z,102033.84
2019-03-19T06:30:21.890Z,102034.83
2019-03-19T06:32:41.801Z,102034.00
2019-03-19T06:35:02.089Z,102035.48
2019-03-19T06:37:22.297Z,102028.97
2019-03-19T06:39:42.198Z,102038.56
2019-03-19T06:42:01.900Z,102044.44
2019-03-19T06:44:21.532Z,102045.91
2019-03-19T06:46:41.361Z,102046.70
2019-03-19T06:49:01.154Z,102056.30
2019-03-19T06:51:20.932Z,102054.34
2019-03-19T06:53:40.729Z,102051.10
2019-03-19T06:56:00.395Z,102048.82
2019-03-19T06:58:20.250Z,102050.26
2019-03-19T07:00:40.091Z,102056.94
2019-03-19T07:02:59.987Z,102046.64
2019-03-19T07:05:20.629Z,102058.86
2019-03-19T07:07:40.690Z,102063.75
2019-03-19T07:10:00.440Z,102066.53
2019-03-19T07:12:20.334Z,102065.05
2019-03-19T07:14:39.973Z,102063.91
2019-03-19T07:16:59.866Z,102068.77
2019-03-19T07:19:19.870Z,102073.67
2019-03-19T07:21:39.820Z,102078.22
2019-03-19T07:23:59.863Z,102082.60
2019-03-19T07:26:20.151Z,102075.97
2019-03-19T07:28:40.022Z,102084.23
2019-03-19T07:30:59.914Z,102076.55
2019-03-19T07:33:19.627Z,102084.67
2019-03-19T07:35:39.406Z,102080.45
2019-03-19T07:37:59.295Z,102090.27
2019-03-19T07:40:19.002Z,102097.29
2019-03-19T07:42:38.869Z,102098.58
2019-03-19T07:44:58.510Z,102108.68
2019-03-19T07:47:18.286Z,102109.31
2019-03-19T07:49:38.112Z,102114.67
2019-03-19T07:51:57.855Z,102113.53
2019-03-19T07:54:17.528Z,102111.72
2019-03-19T07:56:37.620Z,102124.42
2019-03-19T07:58:57.335Z,102121.83
2019-03-19T08:01:17.118Z,102126.67
2019-03-19T08:03:36.917Z,102124.02
2019-03-19T08:05:56.885Z,102130.56
2019-03-19T08:08:16.759Z,102140.06
2019-03-19T08:10:36.852Z,102140.06
2019-03-19T08:12:56.863Z,102143.66
2019-03-19T08:15:20.656Z,102138.31
2019-03-19T08:17:42.775Z,102141.06
2019-03-19T08:20:07.402Z,102144.31
2019-03-19T08:22:26.973Z,102148.24
2019-03-19T08:24:46.765Z,102146.64
2019-03-19T08:27:06.577Z,102144.77
2019-03-19T08:29:26.293Z,102148.66
2019-03-19T08:31:46.319Z,102148.75
2019-03-19T08:34:05.961Z,102147.30
2019-03-19T08:36:25.730Z,102155.58
2019-03-19T08:38:45.595Z,102151.09
2019-03-19T08:41:05.470Z,102153.47
2019-03-19T08:43:25.412Z,102157.52
2019-03-19T08:45:45.302Z,102152.41
2019-03-19T08:48:05.162Z,102155.45
2019-03-19T08:50:25.247Z,102155.95
2019-03-19T08:52:45.507Z,102152.95
2019-03-19T08:55:05.314Z,102152.78
2019-03-19T08:57:25.035Z,102150.09
2019-03-19T08:59:44.958Z,102154.09
2019-03-19T09:02:04.965Z,102158.45
2019-03-19T09:04:24.924Z,102154.72
2019-03-19T09:06:44.727Z,102159.46
2019-03-19T09:09:07.314Z,102155.79
2019-03-19T09:11:47.251Z,102158.85
2019-03-19T09:14:07.072Z,102175.16
2019-03-19T09:16:26.735Z,102180.22
2019-03-19T09:18:46.796Z,102177.02
2019-03-19T09:21:06.595Z,102172.55
2019-03-19T09:23:26.311Z,102173.30
2019-03-19T09:25:46.152Z,102177.95
2019-03-19T09:28:05.859Z,102171.70
2019-03-19T09:30:25.652Z,102176.20
2019-03-19T09:32:45.545Z,102178.24
2019-03-19T09:35:05.502Z,102184.72
2019-03-19T09:37:25.344Z,102181.23
2019-03-19T09:40:11.807Z,102180.46
2019-03-19T09:42:31.817Z,102185.31
2019-03-19T09:44:58.361Z,102184.17
2019-03-19T09:47:13.241Z,102184.09
2019-03-19T09:49:32.960Z,102186.04
2019-03-19T09:51:52.704Z,102188.47
2019-03-19T09:54:12.562Z,102186.91
2019-03-19T09:56:32.313Z,102190.20
2019-03-19T09:58:52.059Z,102185.54
2019-03-19T10:01:11.793Z,102180.52
2019-03-19T10:03:31.607Z,102180.88
2019-03-19T10:05:51.461Z,102182.40
2019-03-19T10:08:11.287Z,102188.42
2019-03-19T10:10:31.074Z,102187.98
2019-03-19T10:12:50.798Z,102181.01
2019-03-19T10:15:11.942Z,102185.78
2019-03-19T10:17:31.686Z,102186.66
2019-03-19T10:19:51.600Z,102185.31
2019-03-19T10:22:11.428Z,102192.84
2019-03-19T10:24:31.465Z,102198.29
2019-03-19T10:26:51.379Z,102199.11
2019-03-19T10:29:11.338Z,102201.08
2019-03-19T10:31:31.281Z,102198.61
2019-03-19T10:33:50.989Z,102200.25
2019-03-19T10:36:10.690Z,102194.80
2019-03-19T10:38:30.519Z,102188.67
2019-03-19T10:40:50.336Z,102184.70
2019-03-19T10:43:10.115Z,102179.66
2019-03-19T10:45:29.981Z,102182.66
2019-03-19T10:47:49.734Z,102188.89
2019-03-19T10:50:22.029Z,102198.74
2019-03-19T10:52:41.803Z,102199.73
2019-03-19T10:55:01.728Z,102208.87
2019-03-19T10:57:21.539Z,102210.47
2019-03-19T10:59:49.030Z,102214.48
2019-03-19T11:02:03.678Z,102214.15
2019-03-19T11:04:23.531Z,102210.37
2019-03-19T11:06:43.610Z,102214.27
2019-03-19T11:09:05.718Z,102211.11
2019-03-19T11:11:25.605Z,102219.00
2019-03-19T11:13:45.407Z,102208.95
2019-03-19T11:16:05.406Z,102216.14
2019-03-19T11:18:25.452Z,102215.89
2019-03-19T11:20:45.580Z,102217.22
2019-03-19T11:23:05.733Z,102221.45
2019-03-19T11:25:28.838Z,102223.38
2019-03-19T11:27:48.989Z,102221.28
2019-03-19T11:30:18.491Z,102226.84
2019-03-19T11:32:38.475Z,102228.15
2019-03-19T11:34:58.346Z,102229.38
2019-03-19T11:37:18.327Z,102231.70
2019-03-19T11:39:38.164Z,102230.13
2019-03-19T11:41:57.943Z,102228.95
2019-03-19T11:44:17.822Z,102230.14
2019-03-19T11:46:37.935Z,102228.34
2019-03-19T11:48:58.016Z,102224.01
2019-03-19T11:51:17.772Z,102226.84
2019-03-19T11:53:37.698Z,102230.59
2019-03-19T11:55:57.574Z,102230.48
2019-03-19T11:58:17.549Z,102226.39
2019-03-19T12:00:51.458Z,102220.20
2019-03-19T12:03:16.457Z,102226.88
2019-03-19T12:05:34.748Z,102229.00
2019-03-19T12:07:54.804Z,102223.95
2019-03-19T12:10:14.935Z,102219.64
2019-03-19T12:12:34.843Z,102216.42
2019-03-19T12:14:54.694Z,102220.52
2019-03-19T12:17:14.372Z,102217.97
2019-03-19T12:19:34.168Z,102213.96
2019-03-19T12:21:53.934Z,102231.84
2019-03-19T12:24:13.893Z,102228.56
2019-03-19T12:26:33.609Z,102228.95
2019-03-19T12:28:53.185Z,102229.25
2019-03-19T12:31:13.039Z,102221.34
2019-03-19T12:33:40.483Z,102218.23
2019-03-19T12:35:54.633Z,102222.32
2019-03-19T12:38:14.461Z,102231.34
2019-03-19T12:40:37.310Z,102230.70
2019-03-19T12:42:56.050Z,102228.45
2019-03-19T12:45:17.965Z,102232.34
2019-03-19T12:47:37.384Z,102234.84
2019-03-19T12:49:57.226Z,102233.75
2019-03-19T12:52:16.965Z,102233.37
2019-03-19T12:54:37.866Z,102231.48
2019-03-19T12:56:57.986Z,102237.39
2019-03-19T12:59:20.401Z,102237.44
2019-03-19T13:01:39.541Z,102241.84
2019-03-19T13:03:59.312Z,102238.87
2019-03-19T13:06:18.987Z,102241.05
2019-03-19T13:08:38.907Z,102233.53
2019-03-19T13:10:58.746Z,102239.23
2019-03-19T13:13:18.461Z,102245.16
2019-03-19T13:15:38.553Z,102246.78
2019-03-19T13:17:58.478Z,102246.36
2019-03-19T13:20:22.383Z,102237.27
2019-03-19T13:22:42.811Z,102238.69
2019-03-19T13:25:23.460Z,102228.23
2019-03-19T13:27:43.727Z,102230.92
2019-03-19T13:30:13.639Z,102231.62
2019-03-19T13:32:33.453Z,102234.09
2019-03-19T13:34:53.638Z,102229.91
2019-03-19T13:37:13.473Z,102232.01
2019-03-19T13:39:33.261Z,102231.25
2019-03-19T13:41:53.071Z,102225.64
2019-03-19T13:44:12.852Z,102222.55
2019-03-19T13:46:32.789Z,102231.63
2019-03-19T13:48:52.754Z,102234.94
2019-03-19T13:51:12.661Z,102229.67
2019-03-19T13:53:32.691Z,102235.90
2019-03-19T13:55:52.646Z,102256.59
2019-03-19T13:58:12.491Z,102256.33
2019-03-19T14:00:32.584Z,102260.65
2019-03-19T14:02:52.399Z,102264.59
2019-03-19T14:05:13.804Z,102263.91
2019-03-19T14:07:34.043Z,102268.63
2019-03-19T14:09:53.775Z,102271.59
2019-03-19T14:12:13.514Z,102269.02
2019-03-19T14:14:33.275Z,102274.38
2019-03-19T14:16:52.921Z,102271.84
2019-03-19T14:19:12.666Z,102271.06
2019-03-19T14:21:32.496Z,102272.58
2019-03-19T14:23:52.174Z,102275.52
2019-03-19T14:26:12.115Z,102274.63
2019-03-19T14:28:31.967Z,102272.25
2019-03-19T14:30:51.678Z,102279.52
2019-03-19T14:33:11.538Z,102280.70
2019-03-19T14:35:37.220Z,102285.30
2019-03-19T14:37:53.412Z,102286.31
2019-03-19T14:40:18.483Z,102285.81
2019-03-19T14:42:38.329Z,102285.11
2019-03-19T14:44:58.137Z,102276.27
2019-03-19T14:47:17.880Z,102284.71
2019-03-19T14:49:46.266Z,102284.81
2019-03-19T14:51:59.441Z,102284.45
2019-03-19T14:54:19.130Z,102284.60
2019-03-19T14:56:38.848Z,102282.56
2019-03-19T14:58:58.693Z,102288.73
2019-03-19T15:01:19.544Z,102287.51
2019-03-19T15:03:39.926Z,102277.74
2019-03-19T15:05:59.623Z,102275.13
2019-03-19T15:08:19.379Z,102280.45
2019-03-19T15:10:39.325Z,102284.14
2019-03-19T15:12:59.342Z,102279.83
2019-03-19T15:15:20.908Z,102280.05
2019-03-19T15:17:40.729Z,102286.98
2019-03-19T15:20:00.712Z,102291.30
2019-03-19T15:22:31.934Z,102283.64
2019-03-19T15:24:42.721Z,102288.15
2019-03-19T15:27:02.768Z,102288.20
2019-03-19T15:29:22.708Z,102298.37
2019-03-19T15:31:42.675Z,102297.73
2019-03-19T15:34:02.652Z,102294.70
2019-03-19T15:36:23.014Z,102307.39
2019-03-19T15:38:42.863Z,102316.90
2019-03-19T15:41:02.825Z,102314.11
2019-03-19T15:43:22.550Z,102317.93
2019-03-19T15:45:42.300Z,102321.97
2019-03-19T15:48:02.094Z,102321.59
2019-03-19T15:50:22.232Z,102324.61
2019-03-19T15:52:42.349Z,102317.20
2019-03-19T15:55:04.102Z,102322.13
2019-03-19T15:57:24.269Z,102327.72
2019-03-19T15:59:44.013Z,102332.95
2019-03-19T16:02:03.757Z,102329.83
2019-03-19T16:04:23.516Z,102327.66
2019-03-19T16:06:43.190Z,102333.90
2019-03-19T16:09:06.644Z,102332.38
2019-03-19T16:11:26.706Z,102337.19
2019-03-19T16:13:46.679Z,102347.44
2019-03-19T16:16:06.859Z,102344.44
2019-03-19T16:18:29.298Z,102349.07
2019-03-19T16:20:49.460Z,102350.38
2019-03-19T16:23:09.982Z,102352.80
2019-03-19T16:25:29.821Z,102357.84
2019-03-19T16:27:49.648Z,102355.91
2019-03-19T16:30:17.219Z,102361.20
2019-03-19T16:32:38.939Z,102364.27
2019-03-19T16:34:59.207Z,102365.13
2019-03-19T16:37:19.049Z,102373.16
2019-03-19T16:39:38.827Z,102374.39
2019-03-19T16:41:58.755Z,102378.93
2019-03-19T16:44:18.381Z,102380.52
2019-03-19T16:46:38.062Z,102379.20
2019-03-19T16:48:57.904Z,102380.58
2019-03-19T16:51:17.612Z,102381.17
2019-03-19T16:53:37.336Z,102385.70
2019-03-19T16:55:57.474Z,102391.86
2019-03-19T16:58:17.248Z,102387.66
2019-03-19T17:00:37.070Z,102401.56
2019-03-19T17:02:56.986Z,102399.97
2019-03-19T17:05:16.917Z,102404.94
2019-03-19T17:07:36.821Z,102402.05
2019-03-19T17:09:56.653Z,102404.92
2019-03-19T17:12:16.535Z,102409.81
2019-03-19T17:14:36.474Z,102415.29
2019-03-19T17:16:56.377Z,102419.05
2019-03-19T17:19:16.244Z,102428.97
2019-03-19T17:21:36.252Z,102423.41
2019-03-19T17:23:56.238Z,102423.61
2019-03-19T17:26:16.128Z,102423.61
2019-03-19T17:28:35.861Z,102429.53
2019-03-19T17:30:55.690Z,102428.85
2019-03-19T17:33:15.488Z,102431.19
2019-03-19T17:35:35.321Z,102430.15
2019-03-19T17:37:55.005Z,102437.09
2019-03-19T17:40:15.395Z,102441.02
2019-03-19T17:42:35.395Z,102447.89
2019-03-19T17:44:55.172Z,102449.35
2019-03-19T17:47:14.809Z,102451.88
2019-03-19T17:49:34.842Z,102457.10
2019-03-19T17:51:54.596Z,102454.66
2019-03-19T17:54:34.179Z,102466.25
2019-03-19T17:56:54.131Z,102471.85
2019-03-19T17:59:13.899Z,102471.05
2019-03-19T18:01:35.850Z,102474.64
2019-03-19T18:03:55.573Z,102477.45
2019-03-19T18:06:15.362Z,102479.47
2019-03-19T18:08:35.303Z,102485.02
2019-03-19T18:10:55.233Z,102482.53
2019-03-19T18:13:15.208Z,102489.09
2019-03-19T18:15:35.275Z,102488.75
2019-03-19T18:17:55.098Z,102493.66
2019-03-19T18:20:16.432Z,102495.49
2019-03-19T18:22:36.518Z,102495.84
2019-03-19T18:24:56.442Z,102507.92
2019-03-19T18:27:16.343Z,102506.62
2019-03-19T18:29:36.196Z,102513.59
2019-03-19T18:31:55.923Z,102517.33
2019-03-19T18:34:15.538Z,102519.11
2019-03-19T18:36:35.356Z,102518.44
2019-03-19T18:38:55.051Z,102521.83
2019-03-19T18:41:14.766Z,102530.28
2019-03-19T18:43:34.516Z,102531.39
2019-03-19T18:45:57.005Z,102537.56
2019-03-19T18:48:16.334Z,102538.86
2019-03-19T18:50:36.171Z,102542.62
2019-03-19T18:52:56.032Z,102546.66
2019-03-19T18:55:15.940Z,102540.42
2019-03-19T18:57:35.629Z,102542.36
2019-03-19T18:59:55.563Z,102547.86
2019-03-19T19:02:15.309Z,102543.51
2019-03-19T19:04:35.067Z,102544.45
2019-03-19T19:06:54.986Z,102542.17
2019-03-19T19:09:14.880Z,102546.50
2019-03-19T19:11:34.797Z,102560.13
2019-03-19T19:13:54.774Z,102556.27
2019-03-19T19:16:14.779Z,102559.75
2019-03-19T19:18:34.660Z,102561.83
2019-03-19T19:20:54.367Z,102563.78
2019-03-19T19:23:14.053Z,102561.05
2019-03-19T19:25:33.798Z,102564.66
2019-03-19T19:27:53.606Z,102566.03
2019-03-19T19:30:21.157Z,102567.41
2019-03-19T19:32:41.051Z,102573.19
2019-03-19T19:35:01.009Z,102575.44
2019-03-19T19:37:21.003Z,102583.28
2019-03-19T19:39:40.984Z,102579.22
2019-03-19T19:42:00.963Z,102578.87
2019-03-19T19:44:20.911Z,102580.41
2019-03-19T19:46:40.739Z,102588.69
2019-03-19T19:49:00.465Z,102589.44
2019-03-19T19:51:20.171Z,102592.23
2019-03-19T19:53:39.882Z,102598.69
2019-03-19T19:55:59.663Z,102597.02
2019-03-19T19:58:19.444Z,102601.27
2019-03-19T20:00:39.286Z,102607.80
2019-03-19T20:02:59.079Z,102604.27
2019-03-19T20:05:18.901Z,102611.53
2019-03-19T20:07:38.655Z,102614.16
2019-03-19T20:09:58.431Z,102614.88
2019-03-19T20:12:18.229Z,102619.98
2019-03-19T20:14:38.029Z,102629.27
2019-03-19T20:16:57.967Z,102627.70
2019-03-19T20:19:17.867Z,102627.65
2019-03-19T20:21:37.692Z,102626.56
2019-03-19T20:23:57.552Z,102628.86
2019-03-19T20:26:17.516Z,102636.37
2019-03-19T20:28:37.498Z,102639.44
2019-03-19T20:30:57.430Z,102650.07
2019-03-19T20:33:24.835Z,102646.13
2019-03-19T20:35:39.126Z,102648.91
2019-03-19T20:37:59.230Z,102650.23
2019-03-19T20:40:18.862Z,102653.03
2019-03-19T20:42:38.694Z,102647.82
2019-03-19T20:44:58.531Z,102656.03
2019-03-19T20:47:18.208Z,102656.82
2019-03-19T20:49:47.138Z,102658.99
2019-03-19T20:51:59.851Z,102662.55
2019-03-19T20:54:19.473Z,102662.11
2019-03-19T20:56:39.232Z,102667.37
2019-03-19T20:58:59.055Z,102675.73
2019-03-19T21:01:18.826Z,102668.93
2019-03-19T21:03:38.679Z,102674.13
2019-03-19T21:05:58.819Z,102679.42
2019-03-19T21:08:22.637Z,102684.89
2019-03-19T21:10:42.418Z,102690.77
2019-03-19T21:13:02.360Z,102688.47
2019-03-19T21:15:25.426Z,102690.42
2019-03-19T21:17:46.525Z,102688.00
2019-03-19T21:20:06.529Z,102689.66
2019-03-19T21:22:26.450Z,102699.49
2019-03-19T21:24:46.298Z,102704.50
2019-03-19T21:27:05.966Z,102710.23
2019-03-19T21:29:25.702Z,102711.57
2019-03-19T21:31:45.363Z,102708.19
2019-03-19T21:34:05.201Z,102712.54
2019-03-19T21:36:24.950Z,102714.47
2019-03-19T21:38:44.841Z,102710.89
2019-03-19T21:41:04.798Z,102710.14
2019-03-19T21:43:24.727Z,102716.72
2019-03-19T21:45:44.738Z,102722.20
2019-03-19T21:48:04.685Z,102721.72
2019-03-19T21:50:24.742Z,102724.97
2019-03-19T21:52:44.624Z,102726.70
2019-03-19T21:55:07.093Z,102729.59
2019-03-19T21:57:27.122Z,102727.56
2019-03-19T21:59:47.088Z,102728.21
2019-03-19T22:02:07.040Z,102733.30
2019-03-19T22:04:26.987Z,102737.48
2019-03-19T22:06:46.854Z,102722.48
2019-03-19T22:09:06.751Z,102742.77
2019-03-19T22:11:26.344Z,102742.20
2019-03-19T22:13:45.966Z,102736.38
2019-03-19T22:16:05.650Z,102741.91
2019-03-19T22:18:25.409Z,102742.27
2019-03-19T22:20:45.284Z,102740.20
2019-03-19T22:23:05.094Z,102742.79
2019-03-19T22:25:24.975Z,102735.02
2019-03-19T22:27:44.871Z,102739.97
2019-03-19T22:30:10.396Z,102744.64
2019-03-19T22:32:30.518Z,102749.02
2019-03-19T22:34:50.239Z,102756.32
2019-03-19T22:37:09.975Z,102755.64
2019-03-19T22:39:29.725Z,102757.51
2019-03-19T22:41:49.512Z,102759.77
2019-03-19T22:44:09.299Z,102765.39
2019-03-19T22:46:29.254Z,102768.95
2019-03-19T22:48:49.472Z,102770.98
2019-03-19T22:51:09.289Z,102768.13
2019-03-19T22:53:31.289Z,102767.48
2019-03-19T22:55:51.013Z,102765.64
2019-03-19T22:58:10.861Z,102766.95
2019-03-19T23:00:32.482Z,102765.23
2019-03-19T23:02:52.625Z,102768.84
2019-03-19T23:05:13.355Z,102771.42
2019-03-19T23:07:33.089Z,102766.97
2019-03-19T23:09:52.813Z,102771.76
2019-03-19T23:12:12.750Z,102771.66
2019-03-19T23:14:32.606Z,102777.73
2019-03-19T23:16:52.636Z,102779.55
2019-03-19T23:19:12.586Z,102783.80
2019-03-19T23:21:32.558Z,102781.08
2019-03-19T23:23:52.302Z,102788.02
2019-03-19T23:26:12.117Z,102787.56
2019-03-19T23:28:31.873Z,102792.51
2019-03-19T23:30:51.838Z,102792.18
2019-03-19T23:33:11.517Z,102796.25
2019-03-19T23:35:31.289Z,102798.77
2019-03-19T23:37:51.013Z,102799.75
2019-03-19T23:40:13.135Z,102800.06
2019-03-19T23:42:33.263Z,102795.65
2019-03-19T23:44:52.998Z,102797.88
2019-03-19T23:47:12.720Z,102803.82
2019-03-19T23:49:32.544Z,102800.98
2019-03-19T23:51:52.321Z,102802.01
2019-03-19T23:54:12.205Z,102805.13
2019-03-19T23:56:32.005Z,102808.72
2019-03-19T23:58:51.850Z,102808.45
